createdAt,value
2023-01-09T00:00:44.010Z,98986.98
2023-01-09T00:03:13.520Z,98984.25
2023-01-09T00:05:43.307Z,98973.69
2023-01-09T00:08:13.056Z,98978.50
2023-01-09T00:10:43.012Z,98988.50
2023-01-09T00:13:14.435Z,98988.50
2023-01-09T00:15:44.222Z,98992.03
2023-01-09T00:18:13.823Z,98969.78
2023-01-09T00:20:43.608Z,98969.78
2023-01-09T00:23:13.210Z,98968.27
2023-01-09T00:25:43.096Z,98977.97
2023-01-09T00:28:12.802Z,98980.39
2023-01-09T00:30:42.609Z,98981.09
2023-01-09T00:33:12.539Z,98984.61
2023-01-09T00:35:42.389Z,98979.56
2023-01-09T00:38:12.142Z,98977.66
2023-01-09T00:40:41.954Z,98975.73
2023-01-09T00:43:11.493Z,98977.48
2023-01-09T00:45:41.481Z,98972.59
2023-01-09T00:48:14.303Z,98964.34
2023-01-09T00:50:44.743Z,98958.55
2023-01-09T00:53:17.335Z,98955.97
2023-01-09T00:55:47.371Z,98956.33
2023-01-09T00:58:17.595Z,98950.52
2023-01-09T01:00:47.306Z,98954.11
2023-01-09T01:03:17.063Z,98951.23
2023-01-09T01:06:04.812Z,98955.27
2023-01-09T01:08:34.588Z,98957.24
2023-01-09T01:11:10.454Z,98967.56
2023-01-09T01:13:42.157Z,98969.55
2023-01-09T01:16:13.892Z,98967.87
2023-01-09T01:18:43.627Z,98968.88
2023-01-09T01:21:14.558Z,98967.41
2023-01-09T01:23:45.235Z,98967.48
2023-01-09T01:26:17.418Z,98966.94
2023-01-09T01:28:47.208Z,98966.94
2023-01-09T01:31:20.371Z,98966.73
2023-01-09T01:33:50.438Z,98965.44
2023-01-09T01:36:20.384Z,98962.84
2023-01-09T01:38:50.156Z,98962.05
2023-01-09T01:41:21.355Z,98952.97
2023-01-09T01:43:56.895Z,98949.17
2023-01-09T01:46:27.523Z,98938.78
2023-01-09T01:49:06.415Z,98924.03
2023-01-09T01:51:39.244Z,98924.03
2023-01-09T01:54:12.234Z,98924.77
2023-01-09T01:56:45.031Z,98910.28
2023-01-09T01:59:23.505Z,98910.28
2023-01-09T02:01:56.386Z,98904.14
2023-01-09T02:04:26.551Z,98904.06
2023-01-09T02:06:58.057Z,98898.41
2023-01-09T02:09:28.024Z,98892.31
2023-01-09T02:12:00.678Z,98884.30
2023-01-09T02:14:33.086Z,98883.97
2023-01-09T02:17:17.922Z,98874.11
2023-01-09T02:20:16.813Z,98870.39
2023-01-09T02:23:05.951Z,98870.39
2023-01-09T02:25:47.663Z,98862.98
2023-01-09T02:28:37.962Z,98852.82
2023-01-09T02:31:28.815Z,98852.82
2023-01-09T02:34:10.234Z,98849.69
2023-01-09T02:37:00.685Z,98834.80
2023-01-09T02:39:45.172Z,98831.55
2023-01-09T02:42:20.658Z,98823.52
2023-01-09T02:44:51.419Z,98818.55
2023-01-09T02:47:24.061Z,98813.02
2023-01-09T02:50:02.463Z,98805.45
2023-01-09T02:52:47.893Z,98802.39
2023-01-09T02:55:37.473Z,98804.15
2023-01-09T02:58:13.181Z,98800.97
2023-01-09T03:00:54.927Z,98792.62
2023-01-09T03:03:30.196Z,98788.67
2023-01-09T03:06:27.655Z,98787.80
2023-01-09T03:09:00.751Z,98789.78
2023-01-09T03:11:34.129Z,98793.66
2023-01-09T03:14:06.960Z,98796.26
2023-01-09T03:16:38.686Z,98798.80
2023-01-09T03:19:11.542Z,98798.44
2023-01-09T03:21:42.993Z,98807.78
2023-01-09T03:24:13.119Z,98802.02
2023-01-09T03:26:43.124Z,98805.98
2023-01-09T03:29:12.910Z,98799.07
2023-01-09T03:31:42.713Z,98792.34
2023-01-09T03:34:12.790Z,98788.18
2023-01-09T03:36:42.553Z,98783.48
2023-01-09T03:39:12.074Z,98765.49
2023-01-09T03:41:41.817Z,98762.08
2023-01-09T03:44:11.694Z,98759.20
2023-01-09T03:46:41.308Z,98752.36
2023-01-09T03:49:10.936Z,98753.81
2023-01-09T03:51:40.689Z,98747.23
2023-01-09T03:54:10.494Z,98745.89
2023-01-09T03:56:40.252Z,98737.95
2023-01-09T03:59:09.754Z,98737.33
2023-01-09T04:01:39.736Z,98729.14
2023-01-09T04:04:09.643Z,98727.70
2023-01-09T04:06:39.408Z,98727.67
2023-01-09T04:09:08.906Z,98725.33
2023-01-09T04:11:38.690Z,98725.45
2023-01-09T04:14:08.211Z,98715.04
2023-01-09T04:16:38.089Z,98711.39
2023-01-09T04:19:07.520Z,98716.14
2023-01-09T04:21:37.450Z,98711.77
2023-01-09T04:24:07.733Z,98710.38
2023-01-09T04:26:37.513Z,98712.52
2023-01-09T04:29:07.125Z,98710.75
2023-01-09T04:31:36.995Z,98705.92
2023-01-09T04:34:06.741Z,98711.08
2023-01-09T04:36:36.536Z,98702.19
2023-01-09T04:39:07.086Z,98703.50
2023-01-09T04:41:49.333Z,98698.94
2023-01-09T04:44:20.411Z,98705.70
2023-01-09T04:46:50.284Z,98700.23
2023-01-09T04:49:20.648Z,98695.20
2023-01-09T04:51:50.388Z,98689.25
2023-01-09T04:54:19.914Z,98684.63
2023-01-09T04:56:50.142Z,98677.36
2023-01-09T04:59:19.901Z,98678.47
2023-01-09T05:01:51.541Z,98679.43
2023-01-09T05:04:21.295Z,98674.22
2023-01-09T05:06:51.124Z,98675.95
2023-01-09T05:09:21.588Z,98674.73
2023-01-09T05:11:52.192Z,98680.41
2023-01-09T05:14:21.738Z,98677.54
2023-01-09T05:16:51.599Z,98667.44
2023-01-09T05:19:21.593Z,98674.41
2023-01-09T05:21:51.795Z,98682.83
2023-01-09T05:24:21.388Z,98679.97
2023-01-09T05:26:51.168Z,98680.89
2023-01-09T05:29:20.634Z,98674.09
2023-01-09T05:31:50.461Z,98675.66
2023-01-09T05:34:19.989Z,98668.98
2023-01-09T05:36:49.765Z,98666.01
2023-01-09T05:39:19.283Z,98666.67
2023-01-09T05:41:49.089Z,98660.52
2023-01-09T05:44:18.922Z,98660.69
2023-01-09T05:46:48.602Z,98659.30
2023-01-09T05:49:18.448Z,98662.74
2023-01-09T05:51:48.343Z,98653.81
2023-01-09T05:54:17.805Z,98655.09
2023-01-09T05:56:47.699Z,98656.70
2023-01-09T05:59:17.150Z,98668.75
2023-01-09T06:01:46.960Z,98663.06
2023-01-09T06:04:16.479Z,98663.63
2023-01-09T06:06:46.271Z,98668.30
2023-01-09T06:09:15.784Z,98652.82
2023-01-09T06:11:45.585Z,98656.08
2023-01-09T06:14:15.503Z,98648.39
2023-01-09T06:16:45.254Z,98647.09
2023-01-09T06:19:15.069Z,98642.35
2023-01-09T06:21:44.962Z,98635.16
2023-01-09T06:24:14.526Z,98633.38
2023-01-09T06:26:44.301Z,98636.09
2023-01-09T06:29:13.804Z,98638.66
2023-01-09T06:31:43.574Z,98625.00
2023-01-09T06:34:13.135Z,98628.65
2023-01-09T06:36:42.982Z,98622.27
2023-01-09T06:39:14.168Z,98622.52
2023-01-09T06:41:47.071Z,98617.96
2023-01-09T06:44:16.575Z,98617.96
2023-01-09T06:46:46.368Z,98625.41
2023-01-09T06:49:17.557Z,98612.20
2023-01-09T06:51:47.349Z,98612.84
2023-01-09T06:54:17.012Z,98612.66
2023-01-09T06:56:46.945Z,98604.84
2023-01-09T06:59:16.410Z,98606.71
2023-01-09T07:01:46.458Z,98608.91
2023-01-09T07:04:17.699Z,98605.09
2023-01-09T07:06:48.002Z,98606.95
2023-01-09T07:09:17.598Z,98610.96
2023-01-09T07:11:47.857Z,98613.47
2023-01-09T07:14:17.606Z,98615.61
2023-01-09T07:16:47.393Z,98617.28
2023-01-09T07:19:17.021Z,98623.70
2023-01-09T07:21:46.861Z,98625.75
2023-01-09T07:24:16.349Z,98625.02
2023-01-09T07:26:46.453Z,98621.10
2023-01-09T07:29:16.249Z,98627.52
2023-01-09T07:31:46.205Z,98629.66
2023-01-09T07:34:15.728Z,98629.20
2023-01-09T07:36:46.682Z,98627.33
2023-01-09T07:39:16.598Z,98627.47
2023-01-09T07:41:46.456Z,98626.72
2023-01-09T07:44:18.027Z,98623.17
2023-01-09T07:46:47.575Z,98617.96
2023-01-09T07:49:17.104Z,98614.23
2023-01-09T07:51:48.266Z,98616.27
2023-01-09T07:54:18.176Z,98617.38
2023-01-09T07:56:48.488Z,98618.36
2023-01-09T07:59:18.089Z,98621.46
2023-01-09T08:01:48.469Z,98626.35
2023-01-09T08:04:18.360Z,98620.20
2023-01-09T08:06:48.314Z,98611.24
2023-01-09T08:09:18.761Z,98604.92
2023-01-09T08:11:48.845Z,98607.43
2023-01-09T08:14:18.638Z,98607.33
2023-01-09T08:16:48.464Z,98616.61
2023-01-09T08:19:18.271Z,98619.59
2023-01-09T08:21:48.309Z,98615.91
2023-01-09T08:24:17.861Z,98611.59
2023-01-09T08:26:47.636Z,98602.48
2023-01-09T08:29:17.158Z,98605.53
2023-01-09T08:31:46.980Z,98603.80
2023-01-09T08:34:16.746Z,98597.56
2023-01-09T08:36:46.489Z,98594.50
2023-01-09T08:39:16.362Z,98606.61
2023-01-09T08:42:04.265Z,98608.95
2023-01-09T08:44:51.806Z,98600.81
2023-01-09T08:47:24.406Z,98602.98
2023-01-09T08:49:54.226Z,98600.08
2023-01-09T08:52:23.703Z,98593.72
2023-01-09T08:54:53.550Z,98587.12
2023-01-09T08:57:23.171Z,98586.70
2023-01-09T08:59:53.090Z,98579.19
2023-01-09T09:02:22.695Z,98581.38
2023-01-09T09:04:53.343Z,98592.61
2023-01-09T09:07:24.540Z,98588.02
2023-01-09T09:09:55.076Z,98596.50
2023-01-09T09:12:25.297Z,98603.19
2023-01-09T09:15:13.346Z,98601.72
2023-01-09T09:17:44.435Z,98597.55
2023-01-09T09:20:14.215Z,98599.69
2023-01-09T09:22:43.961Z,98604.70
2023-01-09T09:25:15.232Z,98601.20
2023-01-09T09:27:45.254Z,98605.13
2023-01-09T09:30:16.782Z,98614.07
2023-01-09T09:32:46.672Z,98607.84
2023-01-09T09:35:17.897Z,98605.29
2023-01-09T09:38:04.836Z,98610.18
2023-01-09T09:40:54.142Z,98607.05
2023-01-09T09:43:50.365Z,98610.73
2023-01-09T09:46:35.271Z,98610.73
2023-01-09T09:49:09.117Z,98616.58
2023-01-09T09:51:50.489Z,98621.70
2023-01-09T09:54:23.527Z,98621.70
2023-01-09T09:56:58.709Z,98619.33
2023-01-09T09:59:32.440Z,98608.58
2023-01-09T10:02:26.409Z,98608.58
2023-01-09T10:04:59.539Z,98605.92
2023-01-09T10:07:32.375Z,98597.15
2023-01-09T10:10:05.674Z,98594.75
2023-01-09T10:12:50.191Z,98597.53
2023-01-09T10:15:28.375Z,98590.53
2023-01-09T10:18:01.174Z,98590.20
2023-01-09T10:20:59.593Z,98589.36
2023-01-09T10:23:50.485Z,98586.77
2023-01-09T10:26:43.253Z,98591.04
2023-01-09T10:29:21.790Z,98585.32
2023-01-09T10:31:57.550Z,98592.36
2023-01-09T10:34:39.095Z,98590.92
2023-01-09T10:37:26.700Z,98590.92
2023-01-09T10:39:59.515Z,98579.38
2023-01-09T10:42:35.039Z,98584.23
2023-01-09T10:45:16.599Z,98588.05
2023-01-09T10:47:46.633Z,98577.08
2023-01-09T10:50:22.144Z,98577.08
2023-01-09T10:52:54.718Z,98581.97
2023-01-09T10:55:36.317Z,98579.85
2023-01-09T10:58:14.801Z,98571.95
2023-01-09T11:00:45.904Z,98575.89
2023-01-09T11:03:21.364Z,98571.59
2023-01-09T11:05:57.790Z,98577.94
2023-01-09T11:08:42.246Z,98578.70
2023-01-09T11:11:12.967Z,98579.97
2023-01-09T11:13:44.745Z,98572.57
2023-01-09T11:16:24.297Z,98573.34
2023-01-09T11:18:58.475Z,98572.07
2023-01-09T11:21:38.153Z,98572.07
2023-01-09T11:24:29.478Z,98569.03
2023-01-09T11:27:27.267Z,98571.00
2023-01-09T11:30:11.725Z,98572.02
2023-01-09T11:32:42.624Z,98567.99
2023-01-09T11:35:34.956Z,98559.09
2023-01-09T11:38:09.655Z,98557.33
2023-01-09T11:40:54.332Z,98559.47
2023-01-09T11:43:33.167Z,98556.55
2023-01-09T11:46:09.039Z,98558.01
2023-01-09T11:48:59.331Z,98561.39
2023-01-09T11:51:35.521Z,98560.72
2023-01-09T11:54:18.619Z,98564.95
2023-01-09T11:56:50.343Z,98563.77
2023-01-09T11:59:31.426Z,98567.45
2023-01-09T12:02:19.892Z,98567.72
2023-01-09T12:04:52.683Z,98572.88
2023-01-09T12:07:34.404Z,98573.56
2023-01-09T12:10:23.512Z,98569.51
2023-01-09T12:13:16.622Z,98569.51
2023-01-09T12:16:13.844Z,98575.41
2023-01-09T12:18:58.896Z,98568.61
2023-01-09T12:21:58.893Z,98573.88
2023-01-09T12:24:40.298Z,98570.47
2023-01-09T12:27:38.409Z,98563.90
2023-01-09T12:30:20.054Z,98582.30
2023-01-09T12:33:07.612Z,98582.30
2023-01-09T12:35:46.245Z,98581.88
2023-01-09T12:38:33.792Z,98591.75
2023-01-09T12:41:22.977Z,98584.37
2023-01-09T12:44:01.367Z,98594.22
2023-01-09T12:46:39.809Z,98587.65
2023-01-09T12:49:34.157Z,98587.09
2023-01-09T12:52:23.334Z,98597.07
2023-01-09T12:55:04.132Z,98599.31
2023-01-09T12:57:41.562Z,98606.56
2023-01-09T13:00:23.015Z,98606.56
2023-01-09T13:03:19.190Z,98607.30
2023-01-09T13:05:53.188Z,98613.52
2023-01-09T13:08:35.254Z,98625.14
2023-01-09T13:11:19.988Z,98621.33
2023-01-09T13:13:54.206Z,98629.68
2023-01-09T13:16:29.569Z,98630.03
2023-01-09T13:19:08.544Z,98626.18
2023-01-09T13:21:39.586Z,98626.67
2023-01-09T13:24:09.842Z,98624.02
2023-01-09T13:26:45.663Z,98629.48
2023-01-09T13:29:18.297Z,98628.76
2023-01-09T13:32:09.185Z,98628.41
2023-01-09T13:34:40.759Z,98628.69
2023-01-09T13:37:25.604Z,98644.59
2023-01-09T13:40:00.778Z,98644.59
2023-01-09T13:42:39.329Z,98644.87
2023-01-09T13:45:25.719Z,98651.22
2023-01-09T13:48:15.383Z,98658.67
2023-01-09T13:50:47.273Z,98661.91
2023-01-09T13:53:24.519Z,98673.48
2023-01-09T13:56:05.943Z,98673.67
2023-01-09T13:58:41.642Z,98673.67
2023-01-09T14:01:31.149Z,98689.39
2023-01-09T14:04:22.184Z,98698.34
2023-01-09T14:07:17.608Z,98698.18
2023-01-09T14:09:59.423Z,98703.03
2023-01-09T14:12:31.816Z,98703.03
2023-01-09T14:15:03.070Z,98708.97
2023-01-09T14:17:36.104Z,98715.18
2023-01-09T14:20:09.700Z,98721.65
2023-01-09T14:22:50.333Z,98723.88
2023-01-09T14:25:16.767Z,98729.63
2023-01-09T14:28:02.940Z,98737.77
2023-01-09T14:30:35.849Z,98736.39
2023-01-09T14:33:20.031Z,98741.40
2023-01-09T14:35:58.648Z,98752.22
2023-01-09T14:38:53.776Z,98760.47
2023-01-09T14:42:00.653Z,98760.47
2023-01-09T14:44:33.617Z,98770.41
2023-01-09T14:47:33.469Z,98776.28
2023-01-09T14:50:21.113Z,98784.88
2023-01-09T14:52:54.015Z,98784.88
2023-01-09T14:55:32.902Z,98792.43
2023-01-09T14:58:28.714Z,98784.19
2023-01-09T15:01:07.138Z,98792.30
2023-01-09T15:03:52.080Z,98802.08
2023-01-09T15:06:27.336Z,98788.27
2023-01-09T15:09:08.378Z,98788.27
2023-01-09T15:11:40.489Z,98792.32
2023-01-09T15:14:15.912Z,98807.86
2023-01-09T15:16:46.542Z,98804.08
2023-01-09T15:19:16.337Z,98814.60
2023-01-09T15:22:00.921Z,98825.70
2023-01-09T15:24:34.192Z,98832.41
2023-01-09T15:27:07.121Z,98845.02
2023-01-09T15:29:37.172Z,98843.85
2023-01-09T15:32:10.296Z,98849.45
2023-01-09T15:34:41.080Z,98849.45
2023-01-09T15:37:11.293Z,98846.98
2023-01-09T15:39:41.148Z,98844.63
2023-01-09T15:42:31.781Z,98845.27
2023-01-09T15:45:02.700Z,98845.27
2023-01-09T15:47:32.913Z,98846.83
2023-01-09T15:50:04.249Z,98853.30
2023-01-09T15:52:34.177Z,98843.59
2023-01-09T15:55:03.998Z,98846.97
2023-01-09T15:57:35.610Z,98841.44
2023-01-09T16:00:36.251Z,98841.44
2023-01-09T16:03:12.604Z,98839.80
2023-01-09T16:05:55.127Z,98834.78
2023-01-09T16:08:29.514Z,98834.78
2023-01-09T16:11:02.654Z,98840.45
2023-01-09T16:13:35.072Z,98849.19
2023-01-09T16:16:04.952Z,98856.00
2023-01-09T16:18:39.933Z,98855.43
2023-01-09T16:21:34.612Z,98855.59
2023-01-09T16:24:19.332Z,98850.06
2023-01-09T16:26:50.565Z,98855.05
2023-01-09T16:29:37.847Z,98867.78
2023-01-09T16:32:09.764Z,98878.42
2023-01-09T16:34:44.075Z,98878.49
2023-01-09T16:37:15.377Z,98898.28
2023-01-09T16:39:48.233Z,98898.28
2023-01-09T16:42:35.265Z,98900.31
2023-01-09T16:45:05.021Z,98896.95
2023-01-09T16:47:34.743Z,98904.48
2023-01-09T16:50:04.920Z,98910.34
2023-01-09T16:52:34.689Z,98909.62
2023-01-09T16:55:06.565Z,98911.41
2023-01-09T16:57:36.942Z,98923.09
2023-01-09T17:00:07.066Z,98923.44
2023-01-09T17:02:37.274Z,98929.77
2023-01-09T17:05:07.491Z,98941.86
2023-01-09T17:07:38.083Z,98944.02
2023-01-09T17:10:10.045Z,98944.49
2023-01-09T17:12:40.312Z,98945.20
2023-01-09T17:15:10.343Z,98946.41
2023-01-09T17:17:40.155Z,98949.56
2023-01-09T17:20:19.925Z,98942.77
2023-01-09T17:22:49.963Z,98945.27
2023-01-09T17:25:37.742Z,98954.25
2023-01-09T17:28:25.555Z,98954.03
2023-01-09T17:30:55.537Z,98982.59
2023-01-09T17:33:25.372Z,98982.59
2023-01-09T17:35:55.759Z,98981.36
2023-01-09T17:38:25.826Z,98982.64
2023-01-09T17:40:58.674Z,98989.13
2023-01-09T17:43:28.451Z,98990.73
2023-01-09T17:46:00.050Z,98985.03
2023-01-09T17:48:29.713Z,98990.50
2023-01-09T17:50:59.431Z,98996.81
2023-01-09T17:53:30.006Z,98996.81
2023-01-09T17:56:00.827Z,98993.08
2023-01-09T17:58:30.928Z,98991.52
2023-01-09T18:01:01.400Z,98988.19
2023-01-09T18:03:32.813Z,98986.78
2023-01-09T18:06:01.597Z,98984.81
2023-01-09T18:08:30.995Z,98997.91
2023-01-09T18:11:05.882Z,99000.51
2023-01-09T18:13:36.191Z,99003.21
2023-01-09T18:16:12.624Z,99010.30
2023-01-09T18:18:42.643Z,99015.30
2023-01-09T18:21:14.610Z,99012.65
2023-01-09T18:23:44.399Z,99011.97
2023-01-09T18:26:16.331Z,99012.42
2023-01-09T18:28:46.204Z,99012.42
2023-01-09T18:31:18.036Z,99005.47
2023-01-09T18:33:50.059Z,99011.95
2023-01-09T18:36:22.419Z,99012.83
2023-01-09T18:38:53.584Z,99011.48
2023-01-09T18:41:24.324Z,99014.95
2023-01-09T18:43:54.374Z,99017.31
2023-01-09T18:46:28.529Z,99018.64
2023-01-09T18:49:00.944Z,99018.50
2023-01-09T18:51:31.527Z,99022.44
2023-01-09T18:54:01.990Z,99026.72
2023-01-09T18:56:31.953Z,99027.31
2023-01-09T18:59:02.105Z,99031.14
2023-01-09T19:01:32.389Z,99031.14
2023-01-09T19:04:02.379Z,99030.97
2023-01-09T19:06:32.523Z,99027.72
2023-01-09T19:09:02.597Z,99037.73
2023-01-09T19:11:32.338Z,99037.73
2023-01-09T19:14:02.500Z,99038.00
2023-01-09T19:16:32.355Z,99042.86
2023-01-09T19:19:02.905Z,99043.39
2023-01-09T19:21:32.846Z,99043.75
2023-01-09T19:24:02.628Z,99056.70
2023-01-09T19:26:32.651Z,99059.80
2023-01-09T19:29:02.447Z,99062.91
2023-01-09T19:31:32.527Z,99065.42
2023-01-09T19:34:02.522Z,99068.86
2023-01-09T19:36:32.317Z,99064.72
2023-01-09T19:39:03.458Z,99066.03
2023-01-09T19:41:33.253Z,99071.19
2023-01-09T19:44:03.315Z,99083.42
2023-01-09T19:46:35.291Z,99082.83
2023-01-09T19:49:06.633Z,99095.47
2023-01-09T19:51:36.428Z,99095.30
2023-01-09T19:54:06.764Z,99101.27
2023-01-09T19:56:38.015Z,99109.84
2023-01-09T19:59:08.791Z,99106.73
2023-01-09T20:01:41.651Z,99109.95
2023-01-09T20:04:17.406Z,99113.92
2023-01-09T20:06:50.010Z,99114.20
2023-01-09T20:09:25.731Z,99114.20
2023-01-09T20:11:55.511Z,99121.34
2023-01-09T20:14:25.107Z,99122.41
2023-01-09T20:16:56.531Z,99114.66
2023-01-09T20:19:27.352Z,99114.30
2023-01-09T20:21:56.127Z,99117.17
2023-01-09T20:24:25.771Z,99116.52
2023-01-09T20:26:55.551Z,99124.70
2023-01-09T20:29:25.716Z,99129.38
2023-01-09T20:31:55.905Z,99137.97
2023-01-09T20:34:25.413Z,99147.17
2023-01-09T20:36:55.199Z,99149.08
2023-01-09T20:39:25.040Z,99147.45
2023-01-09T20:41:54.950Z,99149.61
2023-01-09T20:44:24.530Z,99154.39
2023-01-09T20:46:54.279Z,99164.04
2023-01-09T20:49:23.836Z,99165.86
2023-01-09T20:51:53.888Z,99167.30
2023-01-09T20:54:24.110Z,99173.26
2023-01-09T20:56:53.873Z,99166.93
2023-01-09T20:59:23.425Z,99176.05
2023-01-09T21:01:53.157Z,99176.06
2023-01-09T21:04:23.183Z,99172.61
2023-01-09T21:06:52.903Z,99170.84
2023-01-09T21:09:22.761Z,99169.89
2023-01-09T21:11:52.539Z,99170.48
2023-01-09T21:14:22.090Z,99178.72
2023-01-09T21:16:54.984Z,99176.27
2023-01-09T21:19:22.362Z,99181.52
2023-01-09T21:21:53.606Z,99185.08
2023-01-09T21:24:23.494Z,99184.19
2023-01-09T21:26:53.320Z,99189.45
2023-01-09T21:29:22.992Z,99185.87
2023-01-09T21:31:54.059Z,99192.27
2023-01-09T21:34:24.287Z,99187.22
2023-01-09T21:36:54.158Z,99196.02
2023-01-09T21:39:23.680Z,99200.21
2023-01-09T21:42:13.035Z,99209.36
2023-01-09T21:45:00.440Z,99208.48
2023-01-09T21:47:34.259Z,99218.41
2023-01-09T21:50:04.015Z,99216.74
2023-01-09T21:52:37.489Z,99228.00
2023-01-09T21:55:07.614Z,99233.42
2023-01-09T21:57:37.700Z,99231.81
2023-01-09T22:00:08.549Z,99244.41
2023-01-09T22:02:41.133Z,99244.41
2023-01-09T22:05:11.030Z,99254.42
2023-01-09T22:07:40.913Z,99258.62
2023-01-09T22:10:11.442Z,99255.27
2023-01-09T22:12:42.853Z,99257.42
2023-01-09T22:15:12.702Z,99259.00
2023-01-09T22:17:42.484Z,99261.43
2023-01-09T22:20:13.727Z,99265.12
2023-01-09T22:22:42.604Z,99265.47
2023-01-09T22:25:12.056Z,99270.99
2023-01-09T22:27:41.810Z,99275.50
2023-01-09T22:30:12.552Z,99280.59
2023-01-09T22:32:42.975Z,99275.08
2023-01-09T22:35:12.641Z,99279.05
2023-01-09T22:37:42.372Z,99275.94
2023-01-09T22:40:13.187Z,99283.27
2023-01-09T22:42:42.964Z,99280.32
2023-01-09T22:45:12.972Z,99278.55
2023-01-09T22:47:42.746Z,99278.55
2023-01-09T22:50:12.602Z,99287.21
2023-01-09T22:52:42.347Z,99290.95
2023-01-09T22:55:11.843Z,99290.68
2023-01-09T22:57:41.771Z,99292.63
2023-01-09T23:00:12.474Z,99293.47
2023-01-09T23:02:42.385Z,99294.37
2023-01-09T23:05:12.206Z,99304.19
2023-01-09T23:07:42.075Z,99304.19
2023-01-09T23:10:12.467Z,99310.64
2023-01-09T23:12:43.841Z,99305.80
2023-01-09T23:15:13.861Z,99317.29
2023-01-09T23:17:43.523Z,99320.11
2023-01-09T23:20:13.485Z,99318.89
2023-01-09T23:22:43.231Z,99318.81
2023-01-09T23:25:14.364Z,99322.45
2023-01-09T23:27:44.351Z,99331.63
2023-01-09T23:30:14.462Z,99325.66
2023-01-09T23:32:45.940Z,99322.28
2023-01-09T23:35:18.502Z,99332.06
2023-01-09T23:37:48.253Z,99333.05
2023-01-09T23:40:18.268Z,99328.46
2023-01-09T23:43:06.156Z,99328.89
2023-01-09T23:45:38.008Z,99332.58
2023-01-09T23:48:09.277Z,99327.81
2023-01-09T23:50:39.089Z,99333.89
2023-01-09T23:53:08.738Z,99332.75
2023-01-09T23:55:38.480Z,99336.44
2023-01-09T23:58:08.268Z,99338.00
